Time;durP1;ratioP1;P1;durP2;ratioP2;P2;SDS_P1;SDS_P2;PMS_P1;PMS_P2;Temp;Humidity;BMP_temperature;BMP_pressure;BME280_temperature;BME280_humidity;BME280_pressure;Samples;Min_cycle;Max_cycle;Signal;HPM_P1;HPM_P2
2021/01/29 00:00:23;;;;;;;3.10;3.00;;;;;;;-1.34;88.92;100369.72;6259695;28;20688;-73
2021/01/29 00:03:31;;;;;;;2.73;2.63;;;;;;;-1.37;88.89;100367.34;6252981;28;20200;-73
2021/01/29 00:06:35;;;;;;;2.73;2.53;;;;;;;-1.40;88.34;100369.47;6245728;28;20238;-74
2021/01/29 00:09:39;;;;;;;2.70;2.63;;;;;;;-1.49;89.41;100379.25;6242708;28;20212;-72
2021/01/29 00:12:43;;;;;;;3.30;3.20;;;;;;;-1.46;88.95;100370.91;6255565;28;20193;-73
2021/01/29 00:15:47;;;;;;;2.80;2.70;;;;;;;-1.48;88.58;100366.72;6250915;28;20200;-72
2021/01/29 00:18:50;;;;;;;2.60;2.50;;;;;;;-1.54;88.17;100376.19;6247918;28;20208;-72
2021/01/29 00:21:54;;;;;;;2.90;2.73;;;;;;;-1.58;87.74;100356.09;6257735;28;20194;-72
2021/01/29 00:24:58;;;;;;;3.13;3.03;;;;;;;-1.57;88.71;100368.47;6248696;28;20545;-75
2021/01/29 00:28:02;;;;;;;2.80;2.70;;;;;;;-1.66;88.43;100345.28;6255272;28;20269;-73
2021/01/29 00:31:05;;;;;;;3.33;3.20;;;;;;;-1.63;88.21;100365.56;6250867;28;20269;-74
2021/01/29 00:34:09;;;;;;;2.93;2.83;;;;;;;-1.63;88.83;100361.03;6251139;28;20219;-72
2021/01/29 00:37:12;;;;;;;2.70;2.70;;;;;;;-1.62;88.25;100362.75;6250719;28;20224;-73
2021/01/29 00:40:18;;;;;;;2.90;2.80;;;;;;;-1.70;88.08;100354.63;6247388;28;20679;-72
2021/01/29 00:43:21;;;;;;;2.60;2.60;;;;;;;-1.71;87.75;100358.28;6247908;28;20195;-75
2021/01/29 00:46:26;;;;;;;3.10;3.00;;;;;;;-1.63;88.82;100355.69;6231523;28;20232;-72
2021/01/29 00:49:30;;;;;;;2.57;2.47;;;;;;;-1.49;87.82;100354.34;6238616;28;20286;-73
2021/01/29 00:52:34;;;;;;;3.20;3.00;;;;;;;-1.61;86.93;100358.22;6235763;28;20203;-73
2021/01/29 00:55:38;;;;;;;2.80;2.70;;;;;;;-1.52;85.93;100354.66;6253407;28;20188;-72
2021/01/29 00:58:49;;;;;;;2.77;2.70;;;;;;;-1.52;85.47;100358.16;6226806;28;20284;-72
2021/01/29 01:02:22;;;;;;;3.20;3.10;;;;;;;-1.55;85.36;100363.81;6238406;28;20301;-74
2021/01/29 01:05:27;;;;;;;2.50;2.40;;;;;;;-1.57;85.29;100360.47;6247455;28;20198;-72
2021/01/29 01:08:31;;;;;;;2.90;2.80;;;;;;;-1.61;85.79;100369.75;6239070;28;20210;-72
2021/01/29 01:11:54;;;;;;;4.57;3.47;;;;;;;-1.61;87.38;100375.09;6247447;28;20200;-73
2021/01/29 01:15:19;;;;;;;3.27;3.17;;;;;;;-1.70;88.06;100359.97;6245412;28;20324;-74
2021/01/29 01:18:24;;;;;;;3.10;3.00;;;;;;;-1.70;88.50;100369.81;6248025;28;20228;-72
2021/01/29 01:21:44;;;;;;;3.07;3.07;;;;;;;-1.69;89.19;100366.97;6237666;28;20195;-72
2021/01/29 01:25:12;;;;;;;4.00;3.03;;;;;;;-1.68;88.84;100374.03;6238548;28;20672;-73
2021/01/29 01:28:18;;;;;;;3.20;3.07;;;;;;;-1.82;89.42;100377.19;6236263;28;20235;-73
2021/01/29 01:31:33;;;;;;;3.20;3.10;;;;;;;-1.80;89.47;100367.22;6232426;28;20289;-73
2021/01/29 01:35:14;;;;;;;3.50;3.30;;;;;;;-1.84;89.43;100368.47;6172840;28;20208;-71
2021/01/29 01:38:17;;;;;;;3.60;3.50;;;;;;;-1.68;89.10;100363.34;6234776;28;20230;-72
2021/01/29 01:41:24;;;;;;;3.80;3.50;;;;;;;-1.74;89.10;100374.63;6247874;28;20196;-74
2021/01/29 01:44:35;;;;;;;3.33;3.20;;;;;;;-1.86;89.05;100370.47;6250689;28;20195;-72
2021/01/29 01:47:48;;;;;;;3.67;3.43;;;;;;;-1.97;89.27;100373.34;6231615;28;20203;-72
2021/01/29 01:51:34;;;;;;;3.57;3.27;;;;;;;-1.98;90.17;100369.00;6228016;28;20195;-74
2021/01/29 01:54:44;;;;;;;6.73;3.30;;;;;;;-1.92;90.05;100371.06;6228297;28;20273;-72
2021/01/29 01:57:51;;;;;;;4.37;3.67;;;;;;;-1.94;90.15;100370.38;6245782;28;20215;-72
2021/01/29 02:01:13;;;;;;;4.20;3.90;;;;;;;-1.93;89.62;100369.38;6228918;28;20245;-72
2021/01/29 02:04:45;;;;;;;3.40;3.30;;;;;;;-1.86;89.57;100373.16;6227017;28;20244;-72
2021/01/29 02:08:17;;;;;;;3.90;3.70;;;;;;;-1.94;89.68;100370.38;6236120;28;20218;-72
2021/01/29 02:11:38;;;;;;;3.37;3.27;;;;;;;-1.80;89.61;100375.25;6246797;28;20207;-74
2021/01/29 02:14:58;;;;;;;6.00;3.60;;;;;;;-1.88;89.77;100383.16;6253272;28;20204;-73
2021/01/29 02:18:27;;;;;;;3.93;3.73;;;;;;;-1.94;89.75;100381.06;6230882;28;20197;-72
2021/01/29 02:22:18;;;;;;;3.23;3.13;;;;;;;-1.90;90.03;100369.09;6248336;28;20310;-74
2021/01/29 02:26:28;;;;;;;3.47;3.27;;;;;;;-2.03;89.56;100374.75;6243325;28;20299;-72
2021/01/29 02:29:52;;;;;;;3.40;3.20;;;;;;;-1.97;88.63;100378.69;6225042;28;20354;-73
2021/01/29 02:33:32;;;;;;;4.00;3.80;;;;;;;-1.97;88.45;100370.66;6228333;28;20216;-74
2021/01/29 02:37:39;;;;;;;3.70;3.47;;;;;;;-2.11;89.30;100376.50;6221077;28;20715;-73
2021/01/29 02:41:06;;;;;;;4.07;3.77;;;;;;;-2.07;88.79;100368.03;6221355;28;20583;-73
2021/01/29 02:44:28;;;;;;;4.03;3.70;;;;;;;-2.06;88.62;100374.25;6226148;28;20550;-73
2021/01/29 02:47:58;;;;;;;3.83;3.60;;;;;;;-2.13;88.29;100368.63;6222009;28;20552;-72
2021/01/29 02:51:27;;;;;;;3.97;3.40;;;;;;;-2.19;87.70;100371.91;6218854;28;20220;-73
2021/01/29 02:54:56;;;;;;;3.63;3.43;;;;;;;-2.13;87.64;100365.13;6220820;28;20206;-72
2021/01/29 02:58:35;;;;;;;4.33;3.93;;;;;;;-2.18;88.12;100364.69;6223212;28;20736;-75
2021/01/29 03:02:01;;;;;;;4.03;3.73;;;;;;;-2.30;88.16;100355.19;6225034;28;20291;-75
2021/01/29 03:05:28;;;;;;;3.97;3.47;;;;;;;-2.28;87.94;100374.59;6209401;28;20654;-73
2021/01/29 03:08:38;;;;;;;3.70;3.50;;;;;;;-2.29;87.88;100372.91;6226805;28;20254;-73
2021/01/29 03:12:05;;;;;;;4.80;3.30;;;;;;;-2.41;88.17;100358.06;6219644;28;20227;-73
2021/01/29 03:15:33;;;;;;;3.70;3.50;;;;;;;-2.33;87.57;100356.31;6226495;28;20625;-72
2021/01/29 03:19:14;;;;;;;3.50;3.30;;;;;;;-2.36;87.52;100361.97;6175160;28;20323;-72
2021/01/29 03:22:42;;;;;;;3.40;3.20;;;;;;;-2.34;86.48;100360.00;6218825;28;20216;-73
2021/01/29 03:26:09;;;;;;;3.30;3.20;;;;;;;-2.31;86.96;100353.53;6219091;28;20208;-73
2021/01/29 03:29:42;;;;;;;4.00;3.80;;;;;;;-2.30;87.29;100355.19;6245285;28;20372;-74
2021/01/29 03:33:11;;;;;;;3.80;3.50;;;;;;;-2.29;86.63;100356.88;6249383;28;20649;-76
2021/01/29 03:36:39;;;;;;;3.93;3.73;;;;;;;-2.30;87.02;100349.84;6254304;28;20215;-73
2021/01/29 03:40:03;;;;;;;3.77;3.57;;;;;;;-2.29;87.20;100351.53;6258209;28;20221;-73
2021/01/29 03:43:30;;;;;;;4.17;3.97;;;;;;;-2.30;86.22;100355.19;6255268;28;20240;-73
2021/01/29 03:47:17;;;;;;;3.73;3.53;;;;;;;-2.42;87.48;100343.00;6161459;28;20198;-74
2021/01/29 03:50:49;;;;;;;4.20;4.00;;;;;;;-2.40;87.34;100351.72;6168374;28;20208;-73
2021/01/29 03:54:25;;;;;;;4.03;3.80;;;;;;;-2.26;87.79;100352.06;6224092;28;20211;-73
2021/01/29 03:57:56;;;;;;;4.47;4.17;;;;;;;-2.08;87.35;100354.84;6251064;28;20626;-74
2021/01/29 04:01:25;;;;;;;4.17;3.97;;;;;;;-2.10;87.16;100346.09;6250031;28;20376;-73
2021/01/29 04:04:54;;;;;;;4.30;3.93;;;;;;;-2.10;86.61;100356.78;6250120;28;20203;-73
2021/01/29 04:08:37;;;;;;;3.93;3.73;;;;;;;-2.11;87.15;100349.78;6258206;28;20237;-71
2021/01/29 04:12:05;;;;;;;3.67;3.40;;;;;;;-2.27;87.04;100338.88;6251492;28;20196;-72
2021/01/29 04:15:34;;;;;;;3.80;3.60;;;;;;;-2.27;87.42;100344.22;6235844;28;20207;-76
2021/01/29 04:18:45;;;;;;;4.00;3.70;;;;;;;-2.25;88.03;100342.22;6256710;28;20206;-73
2021/01/29 04:21:54;;;;;;;3.53;3.43;;;;;;;-2.31;87.89;100338.31;6249738;28;20238;-72
2021/01/29 04:25:02;;;;;;;4.33;4.03;;;;;;;-2.23;88.34;100340.25;6248245;28;20284;-73
2021/01/29 04:28:13;;;;;;;3.70;3.60;;;;;;;-2.20;87.52;100334.63;6249892;28;20232;-73
2021/01/29 04:31:19;;;;;;;4.10;3.80;;;;;;;-2.26;88.62;100329.88;6249130;28;20203;-72
2021/01/29 04:34:26;;;;;;;4.10;3.90;;;;;;;-2.29;88.24;100335.50;6245782;28;20212;-73
2021/01/29 04:37:33;;;;;;;4.23;3.93;;;;;;;-2.44;89.09;100347.66;6250691;28;20584;-73
2021/01/29 04:40:46;;;;;;;4.70;4.30;;;;;;;-2.34;89.36;100337.78;6259151;28;20209;-73
2021/01/29 04:44:11;;;;;;;4.20;3.87;;;;;;;-2.58;90.52;100347.16;6254022;28;20648;-73
2021/01/29 04:47:21;;;;;;;4.37;4.07;;;;;;;-2.47;90.19;100342.59;6250123;28;20677;-73
2021/01/29 04:50:36;;;;;;;4.03;3.83;;;;;;;-2.65;90.78;100345.19;6249199;28;20195;-74
2021/01/29 04:54:06;;;;;;;4.03;3.83;;;;;;;-2.56;90.81;100345.16;6247285;28;20214;-74
2021/01/29 04:57:31;;;;;;;4.43;4.13;;;;;;;-2.49;90.72;100349.94;6208636;28;20203;-73
2021/01/29 05:01:00;;;;;;;3.77;3.57;;;;;;;-2.50;90.36;100358.91;6241710;28;20230;-73
2021/01/29 05:05:05;;;;;;;3.70;3.50;;;;;;;-2.30;90.29;100357.88;6235123;28;20199;-73
2021/01/29 05:08:56;;;;;;;4.10;3.90;;;;;;;-2.30;89.51;100360.53;6208174;28;20668;-75
2021/01/29 05:12:47;;;;;;;3.90;3.70;;;;;;;-2.34;89.52;100348.47;6228832;28;20473;-73
2021/01/29 05:16:29;;;;;;;4.20;3.80;;;;;;;-2.33;89.47;100350.13;6244800;28;20212;-73
2021/01/29 05:20:10;;;;;;;4.43;4.13;;;;;;;-2.30;89.67;100352.53;6250316;28;20658;-73
2021/01/29 05:23:47;;;;;;;4.27;3.97;;;;;;;-2.25;90.18;100342.22;6238580;28;20203;-72
2021/01/29 05:27:20;;;;;;;4.80;4.40;;;;;;;-2.23;89.09;100345.59;6245146;28;20574;-73
2021/01/29 05:30:57;;;;;;;4.03;3.83;;;;;;;-2.11;88.98;100328.41;6213265;28;20645;-72
2021/01/29 05:34:19;;;;;;;4.43;4.20;;;;;;;-2.05;88.25;100343.81;6250015;28;20244;-72
2021/01/29 05:38:06;;;;;;;4.27;3.97;;;;;;;-2.25;89.53;100331.53;6244511;28;20228;-72
2021/01/29 05:41:36;;;;;;;4.30;4.10;;;;;;;-2.03;89.04;100326.66;6242304;28;20222;-73
2021/01/29 05:44:53;;;;;;;4.13;3.83;;;;;;;-2.01;88.04;100329.19;6213365;28;20289;-73
2021/01/29 05:48:14;;;;;;;5.43;4.40;;;;;;;-2.01;89.68;100330.03;6242440;28;20206;-71
2021/01/29 05:51:28;;;;;;;4.40;4.00;;;;;;;-2.05;89.33;100322.44;6247940;28;20215;-72
2021/01/29 05:54:57;;;;;;;4.43;4.13;;;;;;;-2.13;89.94;100319.69;6259490;28;20275;-73
2021/01/29 05:58:24;;;;;;;4.60;4.20;;;;;;;-2.13;90.44;100341.06;6245666;28;20207;-72
2021/01/29 06:01:51;;;;;;;4.40;4.13;;;;;;;-2.11;91.22;100318.56;6242980;28;20223;-75
2021/01/29 06:05:19;;;;;;;4.73;4.33;;;;;;;-1.93;90.87;100323.94;6250479;28;20281;-75
2021/01/29 06:08:50;;;;;;;4.43;4.13;;;;;;;-2.02;90.31;100322.16;6247622;28;20191;-73
2021/01/29 06:12:05;;;;;;;4.90;4.50;;;;;;;-1.97;90.93;100320.72;6244431;28;20299;-73
2021/01/29 06:15:48;;;;;;;5.07;4.60;;;;;;;-1.88;90.14;100324.34;6242895;28;20239;-72
2021/01/29 06:19:32;;;;;;;6.07;4.63;;;;;;;-1.68;90.06;100325.88;6249206;28;20290;-72
2021/01/29 06:23:08;;;;;;;6.63;4.73;;;;;;;-1.67;89.81;100322.19;6243626;28;20337;-73
2021/01/29 06:26:23;;;;;;;5.03;4.63;;;;;;;-1.59;88.88;100330.31;6248589;28;20202;-72
2021/01/29 06:29:46;;;;;;;5.27;4.80;;;;;;;-1.66;89.02;100323.91;6242175;28;20607;-72
2021/01/29 06:33:16;;;;;;;5.83;4.53;;;;;;;-1.88;89.89;100320.81;6247870;28;20199;-73
2021/01/29 06:36:41;;;;;;;4.93;4.60;;;;;;;-1.91;90.22;100335.31;6243991;28;20345;-72
2021/01/29 06:40:14;;;;;;;10.83;5.13;;;;;;;-1.89;90.67;100317.28;6243489;28;20612;-72
2021/01/29 06:43:34;;;;;;;4.97;4.40;;;;;;;-1.79;89.40;100328.75;6244927;28;20199;-73
2021/01/29 06:46:51;;;;;;;5.40;4.90;;;;;;;-1.86;89.07;100319.66;6251860;28;20240;-73
2021/01/29 06:50:31;;;;;;;4.80;4.50;;;;;;;-1.78;89.57;100319.75;6254730;28;20199;-72
2021/01/29 06:54:09;;;;;;;5.57;5.07;;;;;;;-1.78;89.45;100319.75;6236353;28;20196;-74
2021/01/29 06:57:33;;;;;;;6.63;4.43;;;;;;;-1.73;88.94;100312.13;6245273;28;20191;-74
2021/01/29 07:00:45;;;;;;;5.00;4.60;;;;;;;-1.62;89.34;100314.59;6246179;28;20254;-72
2021/01/29 07:04:15;;;;;;;4.70;4.27;;;;;;;-1.74;89.24;100307.75;6249694;28;20494;-73
2021/01/29 07:07:32;;;;;;;4.40;4.10;;;;;;;-1.62;89.24;100303.91;6245142;28;20552;-72
2021/01/29 07:11:20;;;;;;;4.67;4.23;;;;;;;-1.82;89.68;100302.31;6247063;28;20230;-72
2021/01/29 07:14:43;;;;;;;4.63;4.33;;;;;;;-1.90;90.16;100307.59;6246995;28;20674;-73
2021/01/29 07:18:03;;;;;;;5.50;5.00;;;;;;;-1.74;90.75;100294.38;6240993;28;20204;-73
2021/01/29 07:21:24;;;;;;;5.27;4.67;;;;;;;-1.85;90.41;100296.44;6251664;28;20212;-73
2021/01/29 07:24:40;;;;;;;4.43;4.10;;;;;;;-1.78;89.52;100298.38;6227480;28;20207;-72
2021/01/29 07:27:47;;;;;;;5.10;4.70;;;;;;;-1.89;90.92;100290.56;6252034;28;20214;-73
2021/01/29 07:31:06;;;;;;;4.73;4.33;;;;;;;-1.76;90.99;100290.19;6206582;28;20580;-74
2021/01/29 07:34:26;;;;;;;5.37;4.23;;;;;;;-1.67;90.37;100287.44;6200548;28;20199;-72
2021/01/29 07:38:00;;;;;;;4.80;4.43;;;;;;;-1.65;89.21;100282.78;6200701;28;20233;-72
2021/01/29 07:41:34;;;;;;;5.17;4.13;;;;;;;-1.81;89.44;100293.31;6201079;28;20292;-73
2021/01/29 07:44:47;;;;;;;6.17;4.13;;;;;;;-1.90;89.68;100294.25;6194610;28;20215;-72
2021/01/29 07:48:27;;;;;;;5.17;4.77;;;;;;;-1.75;90.48;100289.22;6194986;28;20289;-72
2021/01/29 07:51:39;;;;;;;9.07;5.80;;;;;;;-1.80;89.94;100284.31;6208006;28;20213;-72
2021/01/29 07:55:06;;;;;;;5.37;4.97;;;;;;;-1.77;89.79;100284.00;6208506;28;20201;-72
2021/01/29 07:58:22;;;;;;;5.23;4.80;;;;;;;-1.81;90.22;100287.97;6216579;28;20290;-73
2021/01/29 08:01:42;;;;;;;4.53;4.13;;;;;;;-1.77;90.14;100283.19;6212701;28;20213;-72
2021/01/29 08:05:01;;;;;;;4.40;4.10;;;;;;;-1.75;89.10;100292.72;6210487;28;20251;-72
2021/01/29 08:08:10;;;;;;;5.37;4.73;;;;;;;-1.75;89.66;100287.38;6219012;28;20569;-73
2021/01/29 08:11:15;;;;;;;5.20;4.60;;;;;;;-1.71;88.86;100272.69;6213768;28;20216;-72
2021/01/29 08:14:38;;;;;;;8.40;4.63;;;;;;;-1.71;88.55;100294.09;6227983;28;20342;-74
2021/01/29 08:17:59;;;;;;;4.63;4.27;;;;;;;-1.91;89.53;100289.88;6217957;28;20213;-73
2021/01/29 08:21:34;;;;;;;4.80;4.40;;;;;;;-1.93;89.40;100299.88;6225114;28;20299;-73
2021/01/29 08:25:17;;;;;;;4.87;4.47;;;;;;;-1.80;89.37;100288.81;6213815;28;20201;-73
2021/01/29 08:28:53;;;;;;;6.57;4.60;;;;;;;-1.75;88.55;100287.38;6169625;28;20266;-73
2021/01/29 08:32:33;;;;;;;5.00;4.53;;;;;;;-1.74;88.19;100283.69;6223962;28;20220;-74
2021/01/29 08:36:02;;;;;;;4.80;4.13;;;;;;;-2.09;88.27;100260.44;6233954;28;20564;-73
2021/01/29 08:39:19;;;;;;;4.67;4.27;;;;;;;-1.54;87.05;100287.91;6235546;28;20228;-72
2021/01/29 08:42:36;;;;;;;3.70;3.50;;;;;;;-1.77;86.70;100294.69;6222930;28;20844;-72
2021/01/29 08:45:51;;;;;;;4.53;4.10;;;;;;;-1.66;88.06;100289.13;6229528;28;20928;-74
2021/01/29 08:49:19;;;;;;;4.53;3.60;;;;;;;-1.80;87.28;100300.34;6220248;28;20663;-73
2021/01/29 08:52:40;;;;;;;7.73;4.17;;;;;;;-1.76;87.68;100296.38;6218778;28;20216;-72
2021/01/29 08:55:59;;;;;;;4.17;3.90;;;;;;;-1.54;87.17;100287.91;6227752;28;20552;-73
2021/01/29 08:59:05;;;;;;;4.73;4.40;;;;;;;-1.77;87.71;100285.84;6217992;28;20308;-72
2021/01/29 09:02:23;;;;;;;4.67;4.37;;;;;;;-1.74;87.49;100289.03;6230340;28;20358;-72
2021/01/29 09:05:31;;;;;;;4.90;4.20;;;;;;;-1.94;87.19;100282.16;6239072;28;20358;-73
2021/01/29 09:08:36;;;;;;;5.13;4.43;;;;;;;-1.82;87.57;100280.94;6232639;28;20212;-73
2021/01/29 09:11:46;;;;;;;4.17;3.80;;;;;;;-1.70;87.27;100273.53;6220347;28;20220;-74
2021/01/29 09:14:54;;;;;;;4.30;3.90;;;;;;;-1.75;86.85;100287.38;6227656;28;20196;-74
2021/01/29 09:18:03;;;;;;;4.53;4.13;;;;;;;-1.89;86.57;100301.25;6226731;28;20220;-74
2021/01/29 09:21:20;;;;;;;4.43;4.03;;;;;;;-1.75;87.48;100292.72;6230477;28;20253;-75
2021/01/29 09:24:42;;;;;;;8.50;4.60;;;;;;;-1.66;86.22;100296.31;6223421;28;20302;-72
2021/01/29 09:27:54;;;;;;;4.30;4.00;;;;;;;-1.47;85.23;100291.66;6219212;28;20205;-74
2021/01/29 09:31:03;;;;;;;6.03;5.13;;;;;;;-1.58;86.03;100294.56;6223224;28;20235;-73
2021/01/29 09:34:12;;;;;;;5.20;4.70;;;;;;;-1.82;86.55;100286.28;6232097;28;20224;-74
2021/01/29 09:37:20;;;;;;;5.27;4.87;;;;;;;-1.81;86.64;100292.47;6224259;28;20315;-73
2021/01/29 09:40:46;;;;;;;4.67;4.27;;;;;;;-1.74;84.94;100277.50;6227151;28;20198;-74
2021/01/29 09:44:15;;;;;;;4.17;3.97;;;;;;;-1.62;84.03;100277.16;6229544;28;20276;-74
2021/01/29 09:47:22;;;;;;;4.07;3.83;;;;;;;-1.80;84.34;100284.31;6224295;28;20229;-73
2021/01/29 09:50:43;;;;;;;4.97;4.47;;;;;;;-1.76;85.02;100295.53;6233380;28;20185;-74
2021/01/29 09:54:00;;;;;;;4.67;4.37;;;;;;;-1.38;83.17;100296.06;6232247;28;20204;-75
2021/01/29 09:57:12;;;;;;;12.57;7.37;;;;;;;-1.48;84.14;100294.47;6224181;28;20263;-74
2021/01/29 10:00:22;;;;;;;6.23;5.63;;;;;;;-1.41;83.77;100296.38;6233734;28;20195;-73
2021/01/29 10:03:37;;;;;;;16.50;9.50;;;;;;;-1.45;83.25;100292.34;6220649;28;20217;-75
2021/01/29 10:06:49;;;;;;;13.50;8.80;;;;;;;-1.43;84.07;100303.72;6224468;28;20304;-73
2021/01/29 10:10:07;;;;;;;7.23;6.00;;;;;;;-1.72;82.68;100297.75;6226075;28;20233;-73
2021/01/29 10:13:20;;;;;;;5.30;4.80;;;;;;;-1.90;83.97;100304.94;6229617;28;20204;-75
2021/01/29 10:16:37;;;;;;;4.17;3.90;;;;;;;-2.07;85.78;100295.03;6224374;28;20197;-72
2021/01/29 10:19:43;;;;;;;5.83;4.90;;;;;;;-1.87;85.17;100293.91;6225611;28;20197;-73
2021/01/29 10:23:06;;;;;;;4.83;4.50;;;;;;;-2.31;85.90;100286.72;6224160;28;20252;-74
2021/01/29 10:26:20;;;;;;;6.40;4.73;;;;;;;-2.34;86.55;100284.34;6218936;28;20210;-72
2021/01/29 10:29:26;;;;;;;9.37;6.83;;;;;;;-2.17;86.27;100280.88;6240933;28;20318;-72
2021/01/29 10:32:33;;;;;;;5.53;5.00;;;;;;;-2.17;86.03;100288.91;6241096;28;20293;-73
2021/01/29 10:35:42;;;;;;;7.30;4.93;;;;;;;-2.36;85.90;100294.34;6252416;28;20200;-73
2021/01/29 10:38:51;;;;;;;6.13;5.50;;;;;;;-2.26;85.82;100281.78;6253336;28;20259;-77
2021/01/29 10:42:01;;;;;;;4.53;4.33;;;;;;;-2.12;85.12;100275.94;6242902;28;20216;-74
2021/01/29 10:45:08;;;;;;;5.50;4.73;;;;;;;-1.87;84.79;100277.88;6242398;28;20203;-72
2021/01/29 10:48:29;;;;;;;5.33;4.77;;;;;;;-1.90;84.33;100262.97;6254942;28;20264;-72
2021/01/29 10:51:52;;;;;;;5.00;4.50;;;;;;;-1.76;84.37;100269.63;6241321;28;20199;-74
2021/01/29 10:54:55;;;;;;;5.97;4.87;;;;;;;-1.85;84.62;100267.88;6248959;28;20634;-72
2021/01/29 10:58:25;;;;;;;4.87;4.50;;;;;;;-2.04;84.12;100279.53;6249579;28;20196;-75
2021/01/29 11:01:33;;;;;;;4.90;4.27;;;;;;;-2.39;85.82;100275.94;6247392;28;20226;-73
2021/01/29 11:04:42;;;;;;;6.33;4.03;;;;;;;-2.29;85.24;100268.72;6233867;28;20305;-74
2021/01/29 11:07:50;;;;;;;4.63;4.23;;;;;;;-2.20;85.04;100259.78;6264489;28;20570;-73
2021/01/29 11:11:04;;;;;;;4.87;4.37;;;;;;;-2.03;84.61;100267.03;6249234;28;20197;-74
2021/01/29 11:14:20;;;;;;;6.37;4.93;;;;;;;-2.15;84.68;100257.50;6250812;28;20189;-73
2021/01/29 11:17:31;;;;;;;6.10;4.73;;;;;;;-2.17;84.68;100233.63;6250673;28;20195;-72
2021/01/29 11:20:38;;;;;;;4.97;4.67;;;;;;;-2.16;84.27;100251.34;6223279;28;20204;-73
2021/01/29 11:24:05;;;;;;;5.40;5.00;;;;;;;-1.96;84.60;100241.34;6239279;28;20232;-74
2021/01/29 11:27:18;;;;;;;4.93;4.40;;;;;;;-2.08;84.18;100242.56;6245514;28;20228;-75
2021/01/29 11:30:25;;;;;;;4.63;4.27;;;;;;;-1.83;82.97;100241.84;6241708;28;20634;-73
2021/01/29 11:33:33;;;;;;;6.37;4.57;;;;;;;-1.74;82.22;100250.75;6249474;28;20203;-73
2021/01/29 11:36:42;;;;;;;4.70;4.40;;;;;;;-2.04;82.50;100238.59;6254574;28;20267;-72
2021/01/29 11:39:55;;;;;;;4.40;4.20;;;;;;;-1.95;82.20;100235.00;6239172;28;20204;-75
2021/01/29 11:43:05;;;;;;;5.30;4.80;;;;;;;-1.83;82.09;100231.13;6255904;28;20212;-72
2021/01/29 11:46:16;;;;;;;5.40;4.80;;;;;;;-1.96;82.86;100230.66;6238489;28;20200;-74
2021/01/29 11:49:23;;;;;;;4.80;4.47;;;;;;;-2.01;82.92;100222.25;6266847;28;20634;-73
2021/01/29 11:52:32;;;;;;;5.67;4.57;;;;;;;-1.76;82.58;100226.00;6260940;28;20708;-74
2021/01/29 11:55:45;;;;;;;7.47;4.63;;;;;;;-1.73;82.20;100205.16;6259601;28;20287;-72
2021/01/29 11:58:55;;;;;;;4.53;4.10;;;;;;;-1.60;82.04;100216.31;6250229;28;20193;-74
2021/01/29 12:02:10;;;;;;;5.37;4.57;;;;;;;-1.74;82.41;100208.81;6248874;28;20212;-74
2021/01/29 12:05:25;;;;;;;4.70;4.40;;;;;;;-1.95;82.52;100217.13;6250721;28;20193;-73
2021/01/29 12:08:38;;;;;;;4.40;4.10;;;;;;;-2.00;82.24;100215.91;6254049;28;20191;-72
2021/01/29 12:11:50;;;;;;;5.00;4.70;;;;;;;-2.12;82.50;100225.16;6254745;28;20265;-72
2021/01/29 12:15:11;;;;;;;5.30;4.50;;;;;;;-1.79;82.17;100219.13;6249881;28;20193;-74
2021/01/29 12:18:17;;;;;;;4.33;4.07;;;;;;;-1.93;82.16;100227.69;6247780;28;20261;-73
2021/01/29 12:21:34;;;;;;;4.63;4.27;;;;;;;-2.00;82.61;100229.28;6249106;28;20255;-74
2021/01/29 12:24:52;;;;;;;3.97;3.77;;;;;;;-1.77;81.52;100241.19;6251694;28;20190;-73
2021/01/29 12:28:06;;;;;;;4.43;4.13;;;;;;;-1.94;81.74;100240.22;6257744;28;20213;-72
2021/01/29 12:31:22;;;;;;;4.07;3.87;;;;;;;-2.09;81.79;100236.38;6251232;28;20204;-74
2021/01/29 12:34:31;;;;;;;4.17;3.87;;;;;;;-2.08;82.25;100242.56;6250918;28;20646;-72
2021/01/29 12:37:37;;;;;;;4.13;3.77;;;;;;;-1.97;82.33;100228.97;6251559;28;20262;-72
2021/01/29 12:40:44;;;;;;;5.77;4.07;;;;;;;-2.12;81.73;100230.50;6235671;28;20204;-72
2021/01/29 12:44:09;;;;;;;6.50;4.53;;;;;;;-1.97;81.97;100228.97;6248667;28;20230;-73
2021/01/29 12:47:27;;;;;;;4.63;4.23;;;;;;;-2.19;82.36;100250.78;6245466;28;20570;-73
2021/01/29 12:50:56;;;;;;;4.40;4.00;;;;;;;-2.25;81.97;100241.53;6263379;28;20217;-72
2021/01/29 12:54:06;;;;;;;4.63;4.20;;;;;;;-2.35;81.17;100239.91;6253191;28;20218;-73
2021/01/29 12:57:17;;;;;;;5.70;4.40;;;;;;;-2.48;82.62;100237.59;6255577;28;20749;-73
2021/01/29 13:00:27;;;;;;;4.37;4.03;;;;;;;-2.30;81.49;100224.28;6243038;28;20203;-76
2021/01/29 13:03:41;;;;;;;8.57;4.47;;;;;;;-2.22;81.52;100224.38;6246056;28;20651;-73
2021/01/29 13:06:52;;;;;;;4.67;4.23;;;;;;;-2.25;81.76;100224.66;6255455;28;20200;-72
2021/01/29 13:10:15;;;;;;;5.60;4.50;;;;;;;-2.21;82.03;100215.38;6261111;28;20662;-72
2021/01/29 13:13:30;;;;;;;10.63;4.47;;;;;;;-2.02;81.36;100215.22;6243112;28;20208;-72
2021/01/29 13:16:40;;;;;;;3.73;3.53;;;;;;;-2.32;81.43;100212.91;6243714;28;20204;-73
2021/01/29 13:19:47;;;;;;;4.93;4.30;;;;;;;-2.21;81.50;100215.38;6250219;28;20199;-73
2021/01/29 13:22:55;;;;;;;4.10;3.90;;;;;;;-2.19;81.10;100218.72;6255723;28;20297;-75
2021/01/29 13:26:01;;;;;;;4.80;4.30;;;;;;;-2.22;81.69;100216.34;6243425;28;20229;-73
2021/01/29 13:29:17;;;;;;;4.30;3.67;;;;;;;-2.31;81.51;100210.06;6252785;28;20231;-72
2021/01/29 13:32:25;;;;;;;4.70;4.17;;;;;;;-2.38;82.88;100224.19;6244686;28;20263;-75
2021/01/29 13:35:33;;;;;;;4.27;3.97;;;;;;;-2.46;82.72;100226.75;6260208;28;20226;-73
2021/01/29 13:38:39;;;;;;;11.63;4.40;;;;;;;-2.48;82.24;100228.72;6244502;28;20258;-73
2021/01/29 13:41:52;;;;;;;4.23;3.93;;;;;;;-2.46;82.35;100226.75;6248233;28;20195;-76
2021/01/29 13:44:59;;;;;;;5.57;4.30;;;;;;;-2.33;82.91;100232.56;6251589;28;20192;-74
2021/01/29 13:48:08;;;;;;;5.60;3.87;;;;;;;-2.75;82.76;100222.38;6236958;28;20200;-73
2021/01/29 13:51:30;;;;;;;3.90;3.70;;;;;;;-2.78;83.28;100222.69;6249803;28;20297;-74
2021/01/29 13:54:36;;;;;;;5.03;3.83;;;;;;;-2.82;83.41;100226.63;6245151;28;20580;-73
2021/01/29 13:57:45;;;;;;;4.10;3.80;;;;;;;-3.17;84.11;100210.47;6239665;28;20210;-73
2021/01/29 14:00:58;;;;;;;7.17;4.13;;;;;;;-2.75;84.33;100206.34;6246499;28;20745;-73
2021/01/29 14:04:05;;;;;;;3.57;2.70;;;;;;;-2.90;84.26;100210.50;6238838;28;20224;-71
2021/01/29 14:07:11;;;;;;;5.33;4.30;;;;;;;-2.87;84.28;100206.69;6250149;28;20197;-73
2021/01/29 14:10:18;;;;;;;3.77;3.47;;;;;;;-2.86;83.63;100209.25;6245912;28;20219;-74
2021/01/29 14:13:44;;;;;;;4.10;3.90;;;;;;;-2.95;83.36;100203.94;6246750;28;20230;-73
2021/01/29 14:16:54;;;;;;;4.20;3.87;;;;;;;-2.83;83.88;100214.28;6253535;28;20411;-74
2021/01/29 14:20:07;;;;;;;3.87;3.57;;;;;;;-2.82;83.35;100205.28;6246907;28;20198;-74
2021/01/29 14:23:19;;;;;;;4.30;4.00;;;;;;;-2.71;83.53;100215.78;6250176;28;20620;-74
2021/01/29 14:26:35;;;;;;;4.60;4.10;;;;;;;-2.80;83.34;100205.97;6242206;28;20202;-74
2021/01/29 14:29:44;;;;;;;7.13;3.93;;;;;;;-3.16;84.04;100169.47;6248960;28;20241;-73
2021/01/29 14:33:03;;;;;;;4.50;4.17;;;;;;;-2.98;84.73;100221.09;6239870;28;20210;-72
2021/01/29 14:36:12;;;;;;;5.83;4.03;;;;;;;-2.89;84.12;100220.19;6249477;28;20198;-74
2021/01/29 14:39:48;;;;;;;4.80;4.43;;;;;;;-2.77;84.19;100227.03;6250233;28;20885;-73
2021/01/29 14:43:10;;;;;;;4.23;3.93;;;;;;;-2.81;84.28;100211.47;6243302;28;20209;-73
2021/01/29 14:46:41;;;;;;;4.03;3.80;;;;;;;-2.54;83.07;100214.97;6247916;28;20202;-72
2021/01/29 14:50:10;;;;;;;4.63;3.30;;;;;;;-2.73;83.08;100215.09;6235234;28;20217;-74
2021/01/29 14:53:23;;;;;;;4.27;3.87;;;;;;;-2.84;84.07;100217.94;6218246;28;20206;-73
2021/01/29 14:56:32;;;;;;;3.83;3.57;;;;;;;-2.75;84.13;100205.53;6246693;28;20658;-74
2021/01/29 14:59:42;;;;;;;4.93;4.30;;;;;;;-2.71;85.11;100202.44;6255413;28;20194;-73
2021/01/29 15:02:54;;;;;;;5.13;4.57;;;;;;;-2.59;85.09;100198.56;6252971;28;20563;-72
2021/01/29 15:06:01;;;;;;;5.03;4.37;;;;;;;-2.68;85.12;100196.78;6247166;28;20241;-73
2021/01/29 15:09:16;;;;;;;4.07;3.60;;;;;;;-2.64;83.70;100203.50;6239706;28;20283;-74
2021/01/29 15:12:22;;;;;;;4.20;3.80;;;;;;;-2.76;85.37;100199.34;6242998;28;20260;-73
2021/01/29 15:15:40;;;;;;;5.43;3.80;;;;;;;-2.77;85.34;100191.47;6240985;28;20629;-74
2021/01/29 15:18:45;;;;;;;4.10;3.70;;;;;;;-2.96;85.85;100187.09;6250879;28;20200;-73
2021/01/29 15:21:52;;;;;;;3.33;3.23;;;;;;;-2.99;85.62;100182.03;6245612;28;20203;-72